Time,TemperatureF,DewpointF,PressureIn,WindDirection,WindDirectionDegrees,WindSpeedMPH,WindSpeedGustMPH,Humidity,HourlyPrecipIn,Conditions,Clouds,dailyrainin,SoftwareType,DateUTC
2013-04-28 00:02:00,48.0,45.0,30.08,NNW,348,0.0,0.0,89,0.00,,,0.64,,2013-04-28 05:02:00,
2013-04-28 00:12:00,48.0,45.0,30.08,NNW,348,0.0,0.0,89,0.00,,,0.64,,2013-04-28 05:12:00,
2013-04-28 00:22:00,47.0,44.0,30.08,NNW,348,0.0,0.0,89,0.00,,,0.64,,2013-04-28 05:22:00,
2013-04-28 00:32:00,47.0,44.0,30.07,NNW,348,0.0,3.0,90,0.00,,,0.61,,2013-04-28 05:32:00,
2013-04-28 00:42:00,47.0,44.0,30.07,NNW,348,0.0,3.0,90,0.00,,,0.61,,2013-04-28 05:42:00,
2013-04-28 00:52:00,46.0,44.0,30.07,NNW,348,0.0,2.0,91,0.00,,,0.61,,2013-04-28 05:52:00,
2013-04-28 01:01:00,46.0,44.0,30.07,NNW,348,0.0,0.0,91,0.00,,,0.61,,2013-04-28 06:01:00,
2013-04-28 01:12:00,46.0,44.0,30.07,NNW,348,0.0,0.0,91,0.00,,,0.61,,2013-04-28 06:12:00,
2013-04-28 01:21:00,46.0,44.0,30.07,NNW,348,0.0,0.0,91,0.00,,,0.61,,2013-04-28 06:21:00,
2013-04-28 01:32:00,45.0,43.0,30.07,NNW,348,0.0,0.0,92,0.00,,,0.57,,2013-04-28 06:32:00,
2013-04-28 01:42:00,45.0,43.0,30.07,NNW,348,0.0,0.0,92,0.00,,,0.57,,2013-04-28 06:42:00,
2013-04-28 01:51:00,45.0,43.0,30.06,NNW,348,0.0,0.0,92,0.00,,,0.57,,2013-04-28 06:51:00,
2013-04-28 02:01:00,44.0,42.0,30.06,NNW,348,0.0,0.0,92,0.00,,,0.57,,2013-04-28 07:01:00,
2013-04-28 02:11:00,44.0,42.0,30.06,NNW,348,0.0,0.0,92,0.00,,,0.57,,2013-04-28 07:11:00,
2013-04-28 02:21:00,44.0,42.0,30.05,NNW,348,0.0,0.0,92,0.00,,,0.57,,2013-04-28 07:21:00,
2013-04-28 02:31:00,44.0,42.0,30.05,NNW,348,0.0,0.0,93,0.00,,,0.50,,2013-04-28 07:31:00,
2013-04-28 02:42:00,44.0,42.0,30.05,NNW,348,0.0,0.0,93,0.00,,,0.50,,2013-04-28 07:42:00,
2013-04-28 02:52:00,43.0,41.0,30.04,NNW,348,0.0,0.0,93,0.00,,,0.50,,2013-04-28 07:52:00,
2013-04-28 03:02:00,43.0,41.0,30.04,NNW,348,0.0,0.0,93,0.00,,,0.50,,2013-04-28 08:02:00,
2013-04-28 03:11:00,43.0,41.0,30.04,NNW,348,0.0,0.0,93,0.00,,,0.50,,2013-04-28 08:11:00,
2013-04-28 03:21:00,43.0,41.0,30.04,NNW,348,0.0,0.0,93,0.00,,,0.50,,2013-04-28 08:21:00,
2013-04-28 03:32:00,42.0,40.0,30.04,NNW,348,0.0,0.0,93,0.00,,,0.42,,2013-04-28 08:32:00,
2013-04-28 03:42:00,42.0,40.0,30.04,NNW,348,0.0,0.0,93,0.00,,,0.42,,2013-04-28 08:42:00,
2013-04-28 03:52:00,42.0,40.0,30.04,NNW,348,0.0,0.0,93,0.00,,,0.42,,2013-04-28 08:52:00,
2013-04-28 04:01:00,42.0,40.0,30.03,NNW,348,0.0,0.0,93,0.00,,,0.42,,2013-04-28 09:01:00,
2013-04-28 04:11:00,42.0,40.0,30.03,NNW,348,0.0,0.0,93,0.00,,,0.42,,2013-04-28 09:11:00,
2013-04-28 04:21:00,41.0,39.0,30.02,NNW,348,0.0,0.0,93,0.01,,,0.43,,2013-04-28 09:21:00,
2013-04-28 04:33:00,41.0,39.0,30.03,NNW,348,0.0,0.0,94,0.01,,,0.34,,2013-04-28 09:33:00,
2013-04-28 04:42:00,41.0,39.0,30.03,NNW,348,0.0,0.0,94,0.01,,,0.34,,2013-04-28 09:42:00,
2013-04-28 04:53:00,41.0,39.0,30.03,NNW,348,0.0,0.0,94,0.01,,,0.34,,2013-04-28 09:53:00,
2013-04-28 05:03:00,41.0,39.0,30.03,NNW,348,0.0,1.0,94,0.01,,,0.34,,2013-04-28 10:03:00,
2013-04-28 05:12:00,41.0,39.0,30.03,NNW,348,0.0,1.0,94,0.01,,,0.34,,2013-04-28 10:12:00,
2013-04-28 05:22:00,40.0,38.0,30.05,NNW,348,0.0,0.0,94,0.00,,,0.34,,2013-04-28 10:22:00,
2013-04-28 05:32:00,40.0,38.0,30.05,NNW,348,0.0,0.0,94,0.00,,,0.25,,2013-04-28 10:32:00,
2013-04-28 05:42:00,40.0,38.0,30.05,NNW,348,0.0,0.0,94,0.00,,,0.25,,2013-04-28 10:42:00,
2013-04-28 05:52:00,40.0,38.0,30.05,NNW,348,0.0,3.0,94,0.00,,,0.25,,2013-04-28 10:52:00,
2013-04-28 06:02:00,40.0,38.0,30.05,NNW,348,0.0,0.0,94,0.00,,,0.25,,2013-04-28 11:02:00,
2013-04-28 06:11:00,40.0,38.0,30.05,NNW,348,0.0,0.0,94,0.00,,,0.25,,2013-04-28 11:11:00,
2013-04-28 06:22:00,40.0,38.0,30.04,NNW,348,0.0,0.0,94,0.00,,,0.25,,2013-04-28 11:22:00,
2013-04-28 06:32:00,40.0,38.0,30.04,NNW,348,0.0,0.0,94,0.00,,,0.22,,2013-04-28 11:32:00,
2013-04-28 06:42:00,40.0,38.0,30.04,NNW,348,0.0,0.0,94,0.00,,,0.22,,2013-04-28 11:42:00,
2013-04-28 06:52:00,40.0,38.0,30.04,NNW,348,0.0,0.0,94,0.00,,,0.22,,2013-04-28 11:52:00,
2013-04-28 07:02:00,40.0,38.0,30.04,NNW,348,0.0,0.0,94,0.00,,,0.22,,2013-04-28 12:02:00,
2013-04-28 07:12:00,40.0,38.0,30.04,NNW,348,0.0,0.0,94,0.00,,,0.22,,2013-04-28 12:12:00,
2013-04-28 07:21:00,39.0,37.0,30.05,NNW,348,0.0,0.0,94,0.00,,,0.22,,2013-04-28 12:21:00,
2013-04-28 07:32:00,40.0,39.0,30.05,NNW,348,0.0,0.0,95,0.00,,,0.09,,2013-04-28 12:32:00,
2013-04-28 07:42:00,40.0,39.0,30.05,NNW,348,0.0,0.0,95,0.00,,,0.09,,2013-04-28 12:42:00,
2013-04-28 07:52:00,40.0,39.0,30.05,NNW,348,0.0,0.0,95,0.00,,,0.09,,2013-04-28 12:52:00,
2013-04-28 08:02:00,42.0,41.0,30.06,NNW,348,0.0,0.0,95,0.00,,,0.09,,2013-04-28 13:02:00,
2013-04-28 08:11:00,42.0,41.0,30.06,NNW,348,0.0,0.0,95,0.00,,,0.09,,2013-04-28 13:11:00,
2013-04-28 08:21:00,44.0,43.0,30.06,NNW,348,0.0,1.0,95,0.00,,,0.09,,2013-04-28 13:21:00,
2013-04-28 08:32:00,45.0,44.0,30.06,West,271,0.0,5.0,95,0.00,,,0.02,,2013-04-28 13:32:00,
2013-04-28 08:42:00,45.0,44.0,30.06,West,271,0.0,5.0,95,0.00,,,0.02,,2013-04-28 13:42:00,
2013-04-28 08:52:00,46.0,45.0,30.06,West,268,2.0,6.0,95,0.00,,,0.02,,2013-04-28 13:52:00,
2013-04-28 09:02:00,48.0,47.0,30.06,West,271,2.0,7.0,96,0.00,,,0.02,,2013-04-28 14:02:00,
2013-04-28 09:11:00,48.0,47.0,30.06,West,271,2.0,7.0,96,0.00,,,0.02,,2013-04-28 14:11:00,
2013-04-28 09:21:00,49.0,48.0,30.05,WNW,284,1.0,8.0,95,0.00,,,0.02,,2013-04-28 14:21:00,
2013-04-28 09:32:00,50.0,49.0,30.05,West,272,1.0,5.0,96,0.00,,,0.01,,2013-04-28 14:32:00,
2013-04-28 09:42:00,50.0,49.0,30.05,West,272,1.0,5.0,96,0.00,,,0.01,,2013-04-28 14:42:00,
2013-04-28 09:52:00,52.0,50.0,30.04,WSW,257,0.0,4.0,94,0.00,,,0.01,,2013-04-28 14:52:00,
2013-04-28 10:02:00,54.0,51.0,30.05,West,273,1.0,7.0,88,0.00,,,0.01,,2013-04-28 15:02:00,
2013-04-28 10:12:00,54.0,51.0,30.05,West,273,1.0,7.0,88,0.00,,,0.01,,2013-04-28 15:12:00,
2013-04-28 10:21:00,55.0,50.0,30.04,WSW,256,2.0,11.0,83,0.00,,,0.01,,2013-04-28 15:21:00,
2013-04-28 10:32:00,57.0,51.0,30.04,WSW,240,1.0,7.0,80,0.00,,,0.01,,2013-04-28 15:32:00,
2013-04-28 10:42:00,57.0,51.0,30.04,WSW,240,1.0,7.0,80,0.00,,,0.01,,2013-04-28 15:42:00,
2013-04-28 10:53:00,57.0,50.0,30.04,WSW,248,1.0,8.0,77,0.00,,,0.01,,2013-04-28 15:53:00,
2013-04-28 11:03:00,59.0,50.0,30.04,SW,233,1.0,7.0,73,0.00,,,0.01,,2013-04-28 16:03:00,
2013-04-28 11:13:00,59.0,50.0,30.04,SW,233,1.0,7.0,73,0.00,,,0.01,,2013-04-28 16:13:00,
2013-04-28 11:23:00,61.0,52.0,30.04,SSW,207,0.0,5.0,71,0.00,,,0.01,,2013-04-28 16:23:00,
2013-04-28 11:33:00,61.0,51.0,30.04,West,263,1.0,8.0,69,0.00,,,0.01,,2013-04-28 16:33:00,
2013-04-28 11:42:00,61.0,51.0,30.04,West,263,1.0,8.0,69,0.00,,,0.01,,2013-04-28 16:42:00,
2013-04-28 11:52:00,62.0,50.0,30.03,SSE,152,1.0,6.0,65,0.00,,,0.01,,2013-04-28 16:52:00,
2013-04-28 12:02:00,62.0,51.0,30.02,South,175,5.0,10.0,66,0.00,,,0.01,,2013-04-28 17:02:00,
2013-04-28 12:12:00,62.0,51.0,30.02,South,175,5.0,10.0,66,0.00,,,0.01,,2013-04-28 17:12:00,
2013-04-28 12:22:00,64.0,51.0,30.03,West,275,4.0,8.0,62,0.00,,,0.01,,2013-04-28 17:22:00,
2013-04-28 12:32:00,65.0,53.0,30.02,SSW,205,0.0,7.0,64,0.00,,,0.01,,2013-04-28 17:32:00,
2013-04-28 12:42:00,65.0,53.0,30.02,SSW,205,0.0,7.0,64,0.00,,,0.01,,2013-04-28 17:42:00,
2013-04-28 12:51:00,65.0,52.0,30.01,West,265,1.0,7.0,62,0.00,,,0.01,,2013-04-28 17:51:00,
2013-04-28 13:02:00,66.0,53.0,30.01,SSW,213,0.0,6.0,63,0.00,,,0.01,,2013-04-28 18:02:00,
2013-04-28 13:12:00,66.0,53.0,30.01,SSW,213,0.0,6.0,63,0.00,,,0.01,,2013-04-28 18:12:00,
2013-04-28 13:22:00,67.0,52.0,30.00,SW,236,1.0,11.0,59,0.00,,,0.01,,2013-04-28 18:22:00,
2013-04-28 13:32:00,67.0,53.0,29.99,SSE,157,1.0,7.0,60,0.00,,,0.01,,2013-04-28 18:32:00,
2013-04-28 13:42:00,67.0,53.0,29.99,SSE,157,1.0,7.0,60,0.00,,,0.01,,2013-04-28 18:42:00,
2013-04-28 13:52:00,68.0,53.0,29.99,South,169,1.0,10.0,59,0.00,,,0.01,,2013-04-28 18:52:00,
2013-04-28 14:02:00,68.0,54.0,29.98,South,186,2.0,10.0,60,0.00,,,0.01,,2013-04-28 19:02:00,
2013-04-28 14:11:00,68.0,54.0,29.98,South,186,2.0,10.0,60,0.00,,,0.01,,2013-04-28 19:11:00,
2013-04-28 14:21:00,68.0,54.0,29.98,South,172,1.0,9.0,60,0.00,,,0.01,,2013-04-28 19:21:00,
2013-04-28 14:32:00,69.0,54.0,29.97,SSE,152,0.0,7.0,58,0.00,,,0.01,,2013-04-28 19:32:00,
2013-04-28 14:42:00,69.0,54.0,29.97,SSE,152,0.0,7.0,58,0.00,,,0.01,,2013-04-28 19:42:00,
2013-04-28 14:52:00,71.0,55.0,29.97,SW,225,2.0,10.0,57,0.00,,,0.01,,2013-04-28 19:52:00,
2013-04-28 15:02:00,71.0,54.0,29.95,SE,134,1.0,7.0,55,0.00,,,0.01,,2013-04-28 20:02:00,
2013-04-28 15:12:00,71.0,54.0,29.95,SE,134,1.0,7.0,55,0.00,,,0.01,,2013-04-28 20:12:00,
2013-04-28 15:22:00,72.0,55.0,29.96,SE,144,1.0,7.0,55,0.00,,,0.01,,2013-04-28 20:22:00,
2013-04-28 15:32:00,72.0,54.0,29.94,SSE,167,0.0,8.0,53,0.00,,,0.01,,2013-04-28 20:32:00,
2013-04-28 15:42:00,72.0,54.0,29.94,SSE,167,0.0,8.0,53,0.00,,,0.01,,2013-04-28 20:42:00,
2013-04-28 15:52:00,72.0,53.0,29.93,SSW,192,1.0,9.0,51,0.00,,,0.01,,2013-04-28 20:52:00,
2013-04-28 16:01:00,73.0,53.0,29.92,South,172,3.0,10.0,50,0.00,,,0.01,,2013-04-28 21:01:00,
2013-04-28 16:11:00,73.0,53.0,29.92,South,172,3.0,10.0,50,0.00,,,0.01,,2013-04-28 21:11:00,
2013-04-28 16:22:00,73.0,51.0,29.91,SSW,207,3.0,12.0,46,0.00,,,0.01,,2013-04-28 21:22:00,
2013-04-28 16:33:00,74.0,53.0,29.89,SSE,164,3.0,11.0,48,0.00,,,0.01,,2013-04-28 21:33:00,
2013-04-28 16:42:00,74.0,53.0,29.89,SSE,164,3.0,11.0,48,0.00,,,0.01,,2013-04-28 21:42:00,
2013-04-28 16:52:00,72.0,53.0,29.88,SSE,164,2.0,10.0,51,0.00,,,0.01,,2013-04-28 21:52:00,
2013-04-28 17:03:00,72.0,52.0,29.88,SSE,148,5.0,14.0,50,0.00,,,0.01,,2013-04-28 22:03:00,
2013-04-28 17:12:00,72.0,52.0,29.88,SSE,148,5.0,14.0,50,0.00,,,0.01,,2013-04-28 22:12:00,
2013-04-28 17:22:00,72.0,52.0,29.88,SSE,165,3.0,15.0,49,0.00,,,0.01,,2013-04-28 22:22:00,
2013-04-28 17:33:00,72.0,52.0,29.87,SE,134,3.0,11.0,50,0.00,,,0.01,,2013-04-28 22:33:00,
2013-04-28 17:42:00,72.0,52.0,29.87,SE,134,3.0,11.0,50,0.00,,,0.01,,2013-04-28 22:42:00,
2013-04-28 17:52:00,72.0,53.0,29.86,SE,128,2.0,10.0,51,0.00,,,0.01,,2013-04-28 22:52:00,
2013-04-28 18:02:00,73.0,53.0,29.86,SSE,152,3.0,9.0,49,0.00,,,0.01,,2013-04-28 23:02:00,
2013-04-28 18:12:00,73.0,53.0,29.86,SSE,152,3.0,9.0,49,0.00,,,0.01,,2013-04-28 23:12:00,
2013-04-28 18:22:00,72.0,52.0,29.86,SSE,150,1.0,6.0,49,0.00,,,0.01,,2013-04-28 23:22:00,
2013-04-28 18:32:00,72.0,51.0,29.86,SSE,156,4.0,12.0,47,0.00,,,0.01,,2013-04-28 23:32:00,
2013-04-28 18:42:00,72.0,51.0,29.86,SSE,156,4.0,12.0,47,0.00,,,0.01,,2013-04-28 23:42:00,
2013-04-28 18:52:00,72.0,53.0,29.85,ESE,107,0.0,11.0,51,0.00,,,0.01,,2013-04-28 23:52:00,
2013-04-28 19:01:00,72.0,51.0,29.85,SW,230,4.0,17.0,48,0.00,,,0.01,,2013-04-29 00:01:00,
2013-04-28 19:11:00,72.0,51.0,29.85,SW,230,4.0,17.0,48,0.00,,,0.01,,2013-04-29 00:11:00,
2013-04-28 19:22:00,71.0,51.0,29.85,SSE,164,2.0,10.0,50,0.00,,,0.01,,2013-04-29 00:22:00,
2013-04-28 19:32:00,70.0,51.0,29.84,South,169,0.0,6.0,51,0.00,,,0.01,,2013-04-29 00:32:00,
2013-04-28 19:42:00,70.0,51.0,29.84,South,169,0.0,6.0,51,0.00,,,0.01,,2013-04-29 00:42:00,
2013-04-28 19:52:00,70.0,52.0,29.84,SE,143,1.0,8.0,52,0.00,,,0.01,,2013-04-29 00:52:00,
2013-04-28 20:01:00,69.0,52.0,29.84,South,184,0.0,9.0,54,0.00,,,0.01,,2013-04-29 01:01:00,
2013-04-28 20:12:00,68.0,54.0,29.85,SSE,161,0.0,7.0,61,0.00,,,0.01,,2013-04-29 01:12:00,
2013-04-28 20:21:00,68.0,54.0,29.85,SSE,161,0.0,7.0,61,0.00,,,0.01,,2013-04-29 01:21:00,
2013-04-28 20:32:00,67.0,54.0,29.85,SSE,148,0.0,7.0,64,0.00,,,0.01,,2013-04-29 01:32:00,
2013-04-28 20:42:00,67.0,54.0,29.85,SSE,148,0.0,7.0,64,0.00,,,0.01,,2013-04-29 01:42:00,
2013-04-28 20:52:00,66.0,54.0,29.85,SSE,158,0.0,4.0,66,0.00,,,0.01,,2013-04-29 01:52:00,
2013-04-28 21:02:00,65.0,53.0,29.85,SE,140,3.0,8.0,66,0.00,,,0.01,,2013-04-29 02:02:00,
2013-04-28 21:11:00,65.0,53.0,29.85,SE,140,3.0,8.0,66,0.00,,,0.01,,2013-04-29 02:11:00,
2013-04-28 21:21:00,64.0,53.0,29.85,SE,131,2.0,6.0,67,0.00,,,0.01,,2013-04-29 02:21:00,
2013-04-28 21:32:00,64.0,53.0,29.85,SE,135,0.0,7.0,68,0.00,,,0.01,,2013-04-29 02:32:00,
2013-04-28 21:42:00,64.0,53.0,29.85,SE,135,0.0,7.0,68,0.00,,,0.01,,2013-04-29 02:42:00,
2013-04-28 21:51:00,63.0,53.0,29.86,SE,139,2.0,8.0,69,0.00,,,0.01,,2013-04-29 02:51:00,
2013-04-28 22:01:00,62.0,52.0,29.86,SSE,148,2.0,9.0,70,0.00,,,0.01,,2013-04-29 03:01:00,
2013-04-28 22:12:00,62.0,52.0,29.86,SSE,148,2.0,9.0,70,0.00,,,0.01,,2013-04-29 03:12:00,
2013-04-28 22:21:00,62.0,52.0,29.86,ESE,122,3.0,7.0,71,0.00,,,0.01,,2013-04-29 03:21:00,
2013-04-28 22:33:00,61.0,52.0,29.86,SE,134,2.0,8.0,73,0.00,,,0.01,,2013-04-29 03:33:00,
2013-04-28 22:42:00,61.0,52.0,29.86,SE,134,2.0,8.0,73,0.00,,,0.01,,2013-04-29 03:42:00,
2013-04-28 22:52:00,61.0,53.0,29.86,ESE,120,4.0,9.0,75,0.00,,,0.01,,2013-04-29 03:52:00,
2013-04-28 23:03:00,60.0,53.0,29.85,SE,133,2.0,7.0,77,0.00,,,0.01,,2013-04-29 04:03:00,
2013-04-28 23:13:00,60.0,53.0,29.85,SE,133,2.0,7.0,77,0.00,,,0.01,,2013-04-29 04:13:00,
2013-04-28 23:23:00,60.0,53.0,29.85,East,87,3.0,12.0,78,0.00,,,0.01,,2013-04-29 04:23:00,
2013-04-28 23:33:00,60.0,53.0,29.85,SE,130,1.0,5.0,79,0.00,,,0.01,,2013-04-29 04:33:00,
2013-04-28 23:43:00,60.0,53.0,29.85,SE,130,1.0,5.0,79,0.00,,,0.01,,2013-04-29 04:43:00,
2013-04-28 23:52:00,59.0,52.0,29.85,SSE,148,1.0,7.0,79,0.00,,,0.01,,2013-04-29 04:52:00,